Rossie, New York
Current Conditions -  °F | °C
As of 10:58 PM on Monday 20 Oct 2014 (Local Time) from KGTB Reporting Station
Overcast Overcast  
Wind Chill: 43°   Ceiling: 4300
Heat Index: 47°   Visibility: 10mi
Dew Point: 41°   Wind: 9mph
Humidity: 79%   Direction: 140°SE
Pressure: 29.86"   Gusts: NA
Location:  44.435°N, 75.6656°W
Report Text: KGTB 210258Z AUTO 14008KT 10SM OVC043 08/05 A2986 RMK AO2 DZB0221E0232 SLP116 P0000 60000 T00840050 57005
Loading
Personal Weather Stations






























Interactive Weather Map
Tropical Storm Tracking
New forecast layout! Learn more

10-Day Weather Forecast

Advertisements
Track Severe Weather on mobile